KDLS/DLS METAR and TAF weather

Enter ICAO airport designator
Station Type Date Time Source
KDLS METAR 2020/11/25 21:53 UTC NOAA

KDLS 252153Z AUTO 32012KT 10SM CLR 10/03 A3013 RMK AO2 SLP202 T01000033


Station Type Date Time Source
KDLS Decoded METAR 2020/11/25 21:53 UTC NOAA

THE DALLES MUNICIPAL AIRPORT , OR, United States (KDLS) 45-37N 121-10W 71M
Nov 25, 2020 - 04:53 PM EST / 2020.11.25 2153 UTC
Wind: from the NW (320 degrees) at 14 MPH (12 KT):0
Visibility: 10 mile(s):0
Sky conditions: clear
Temperature: 50.0 F (10.0 C)
Dew Point: 37.9 F (3.3 C)
Relative Humidity: 63%
Pressure (altimeter): 30.13 in. Hg (1020 hPa)
ob: KDLS 252153Z AUTO 32012KT 10SM CLR 10/03 A3013 RMK AO2 SLP202 T01000033
cycle: 22

Station Type Date Time Source
KDLS TAF 2020/11/25 18:27 UTC NOAA

TAF KDLS 251724Z 2518/2618 29008KT P6SM SCT080
FM260300 30004KT P6SM BKN050
FM261700 30006KT P6SM SCT100

Example: see airport list